Lamoni, IA

1:44 AM CDT on October 23, 2014 (GMT -0500)
Lamoni Municipal | Change Station
CLOSE
Current Station
Airport
Location: Lamoni,
Elevation: 1132 ft
Nearby Weather Stations

Elev 1132 ft 40.63 °N, 93.90 °W | Updated 51 minutes ago

Mostly Cloudy
Mostly Cloudy
56 °F
Feels Like 56 °F
N
9
Wind Variable Wind from SSE
Gusts 17 mph

Today
High -- | Low -- °F
--% Chance of Precip.
Yesterday
High -- | Low -- °F
Precip. -- in
7:35 AM 6:23 PM
Waning Crescent, 0% visible
Pressure 30.10 in
Visibility 10.0 miles
Clouds Mostly Cloudy 7500 ft
Mostly Cloudy 9000 ft
Dew Point 44 °F
Humidity 64%
Rainfall 0.00 in
Snow Depth Not available.
UV 0 out of 12
Pollen 1.70 out of 12
Air Quality Not available.
Flu Activity Sporadic
METAR KLWD 230553Z AUTO 16008G15KT 10SM BKN075 BKN090 13/07 A3010 RMK AO2 SLP193 T01330067 10156 20128 401890072 56009

More Conditions Fewer Conditions

Pressure 30.10 in
Visibility 10.0 miles
Clouds Mostly Cloudy 7500 ft
Mostly Cloudy 9000 ft
Dew Point 44 °F
Humidity 64%
Rainfall 0.00 in
Snow Depth Not available.
UV 0 out of 12
Pollen 1.70 out of 12
Air Quality Not available.
Flu Activity Sporadic
METAR KLWD 230553Z AUTO 16008G15KT 10SM BKN075 BKN090 13/07 A3010 RMK AO2 SLP193 T01330067 10156 20128 401890072 56009

More Conditions Fewer Conditions

10-Day Weather Forecast

Almanac

Astronomy

Oct. 23, 2014 Rise Set
Actual Time 7:35 AM CDT 6:23 PM CDT
Civil Twilight 7:07 AM CDT 6:51 PM CDT
Nautical Twilight 6:35 AM CDT 7:23 PM CDT
Astronomical Twilight 6:04 AM CDT 7:55 PM CDT
Moon 7:15 AM CDT 6:25 PM CDT
Length of Visible Light 11h 43m
Length of Day
10h 48m
Tomorrow will be 2m 30s shorter.
Waning Crescent, 0% of the Moon is Illuminated
Today
Waning Crescent
Oct 23
New
Oct 30
First Quarter
Nov 6
Full
Nov 14
Last Quarter

Today's Extremes

State Highs State Lows

Community

WunderPhotos

Upload Photos

1,764,194 photos uploaded!

Nearby

Snow Depth

Station Depth Elevation
No new snow has been reported.

Earthquake Activity

City Distance Mag. Time & Date
No recent earthquake activity has been reported nearby.
Minimum magnitude displayed is 2.5.

Coastal Water Temperatures

Place Temperature
No Stations Reporting

Nearby Weather Stations